createdAt,value
2019-02-17T00:01:23.756Z,13.51
2019-02-17T00:04:54.817Z,13.88
2019-02-17T00:08:24.874Z,11.56
2019-02-17T00:11:54.838Z,12.76
2019-02-17T00:15:24.919Z,14.49
2019-02-17T00:18:54.935Z,12.99
2019-02-17T00:22:25.002Z,13.05
2019-02-17T00:25:55.017Z,12.86
2019-02-17T00:29:25.137Z,12.47
2019-02-17T00:32:55.057Z,12.38
2019-02-17T00:36:25.161Z,14.75
2019-02-17T00:39:55.162Z,16.65
2019-02-17T00:43:25.281Z,12.66
2019-02-17T00:46:55.262Z,12.06
2019-02-17T00:50:25.474Z,14.57
2019-02-17T00:53:55.546Z,11.76
2019-02-17T00:57:25.619Z,15.1
2019-02-17T01:00:56.322Z,12.99
2019-02-17T01:04:26.447Z,12.31
2019-02-17T01:07:57.595Z,10.65
2019-02-17T01:11:27.796Z,13.01
2019-02-17T01:14:57.857Z,19.46
2019-02-17T01:18:27.949Z,14.26
2019-02-17T01:21:58.011Z,13.45
2019-02-17T01:25:28.095Z,15.44
2019-02-17T01:28:58.143Z,15.59
2019-02-17T01:32:28.265Z,13.66
2019-02-17T01:35:58.285Z,13.26
2019-02-17T01:39:28.296Z,14.57
2019-02-17T01:42:58.328Z,14.36
2019-02-17T01:46:28.380Z,15.85
2019-02-17T01:49:58.401Z,14.49
2019-02-17T01:53:28.468Z,12.04
2019-02-17T01:56:58.443Z,12.64
2019-02-17T02:00:16.255Z,14.12
2019-02-17T02:03:46.327Z,12.38
2019-02-17T02:07:16.518Z,11.55
2019-02-17T02:10:47.599Z,13.44
2019-02-17T02:14:17.691Z,11.66
2019-02-17T02:17:47.791Z,12.5
2019-02-17T02:21:17.885Z,14.84
2019-02-17T02:24:47.924Z,13.21
2019-02-17T02:28:17.966Z,13.21
2019-02-17T02:31:48.017Z,11.62
2019-02-17T02:35:18.149Z,10.6
2019-02-17T02:38:48.211Z,12.16
2019-02-17T02:42:18.382Z,7.83
2019-02-17T02:45:48.463Z,8.19
2019-02-17T02:49:18.546Z,7.88
2019-02-17T02:52:48.598Z,3.98
2019-02-17T02:56:18.848Z,6.65
2019-02-17T02:59:52.308Z,6.29
2019-02-17T03:03:22.810Z,8.96
2019-02-17T03:06:55.791Z,7.53
2019-02-17T03:10:25.914Z,12.03
2019-02-17T03:13:57.117Z,11.06
2019-02-17T03:17:27.461Z,11.38
2019-02-17T03:20:57.517Z,11.54
2019-02-17T03:24:27.608Z,6.42
2019-02-17T03:27:57.610Z,9.71
2019-02-17T03:31:27.702Z,10.15
2019-02-17T03:34:57.792Z,10.14
2019-02-17T03:38:27.765Z,4.93
2019-02-17T03:41:58.088Z,3.33
2019-02-17T03:45:28.217Z,9.89
2019-02-17T03:48:58.228Z,11.26
2019-02-17T03:52:28.229Z,8.11
2019-02-17T03:55:58.234Z,9.51
2019-02-17T03:59:28.343Z,11.95
2019-02-17T04:00:17.468Z,10.61
2019-02-17T04:03:47.684Z,6.74
2019-02-17T04:07:17.837Z,9.23
2019-02-17T04:10:47.938Z,9.84
2019-02-17T04:14:19.039Z,8.76
2019-02-17T04:17:49.142Z,10.21
2019-02-17T04:21:19.221Z,9.34
2019-02-17T04:24:49.215Z,9.9
2019-02-17T04:28:19.326Z,9.66
2019-02-17T04:31:49.309Z,8.66
2019-02-17T04:35:19.467Z,9.36
2019-02-17T04:38:49.589Z,8.89
2019-02-17T04:42:19.802Z,9.55
2019-02-17T04:45:49.820Z,9.29
2019-02-17T04:49:19.883Z,11.18
2019-02-17T04:52:50.036Z,8.51
2019-02-17T04:56:20.217Z,9.5
2019-02-17T04:59:50.237Z,9.82
2019-02-17T05:03:20.321Z,8.66
2019-02-17T05:06:50.530Z,9.14
2019-02-17T05:10:20.634Z,8.47
2019-02-17T05:13:50.684Z,8.39
2019-02-17T05:17:21.745Z,8.29
2019-02-17T05:20:51.847Z,7.99
2019-02-17T05:24:21.958Z,8.55
2019-02-17T05:27:52.060Z,10.45
2019-02-17T05:31:22.162Z,17.36
2019-02-17T05:34:52.193Z,8.6
2019-02-17T05:38:22.315Z,10.03
2019-02-17T05:41:52.436Z,13.61
2019-02-17T05:45:22.637Z,8.27
2019-02-17T05:48:52.658Z,12.56
2019-02-17T05:52:22.690Z,10.76
2019-02-17T05:55:52.721Z,8.41
2019-02-17T05:59:22.821Z,9.8
2019-02-17T06:00:18.702Z,10.24
2019-02-17T06:03:48.716Z,9.74
2019-02-17T06:07:18.680Z,12.35
2019-02-17T06:10:48.769Z,12.91
2019-02-17T06:14:18.848Z,15.18
2019-02-17T06:17:49.862Z,17.39
2019-02-17T06:21:19.976Z,26.88
2019-02-17T06:24:50.127Z,25.11
2019-02-17T06:28:20.197Z,31.84
2019-02-17T06:31:50.308Z,38.5
2019-02-17T06:35:20.400Z,38.09
2019-02-17T06:38:50.401Z,22.76
2019-02-17T06:42:20.493Z,19.81
2019-02-17T06:45:50.615Z,22.24
2019-02-17T06:49:20.656Z,28.52
2019-02-17T06:52:50.657Z,17.57
2019-02-17T06:56:40.621Z,15
2019-02-17T07:00:22.071Z,14.43
2019-02-17T07:03:52.124Z,13.95
2019-02-17T07:07:22.153Z,13.03
2019-02-17T07:10:52.306Z,14.87
2019-02-17T07:14:22.377Z,13.65
2019-02-17T07:17:53.390Z,13.76
2019-02-17T07:21:23.414Z,12.12
2019-02-17T07:24:53.382Z,14.38
2019-02-17T07:28:23.401Z,15.19
2019-02-17T07:31:53.575Z,12
2019-02-17T07:35:23.744Z,15.76
2019-02-17T07:38:53.789Z,19.89
2019-02-17T07:42:23.910Z,13.47
2019-02-17T07:45:53.963Z,10.71
2019-02-17T07:49:24.018Z,11.68
2019-02-17T07:52:54.125Z,10.44
2019-02-17T07:56:24.197Z,11.16
2019-02-17T07:59:54.230Z,10.51
2019-02-17T08:00:17.009Z,11.27
2019-02-17T08:03:47.060Z,11.97
2019-02-17T08:07:17.212Z,11.94
2019-02-17T08:10:47.154Z,11.32
2019-02-17T08:14:17.385Z,9.1
2019-02-17T08:17:47.415Z,12.16
2019-02-17T08:21:18.540Z,10.36
2019-02-17T08:24:48.564Z,11.89
2019-02-17T08:28:18.622Z,13.36
2019-02-17T08:32:14.659Z,13.46
2019-02-17T10:00:18.207Z,26.69
2019-02-17T10:03:48.282Z,24.99
2019-02-17T10:07:18.371Z,21.01
2019-02-17T10:10:48.493Z,23.24
2019-02-17T10:14:18.535Z,22.25
2019-02-17T10:17:48.576Z,24.46
2019-02-17T10:21:18.718Z,22.66
2019-02-17T10:24:48.791Z,21.4
2019-02-17T10:28:18.801Z,25.02
2019-02-17T10:31:48.837Z,23.52
2019-02-17T10:35:18.936Z,24.64
2019-02-17T10:38:49.017Z,23.74
2019-02-17T10:42:19.162Z,21.54
2019-02-17T10:45:49.221Z,21.02
2019-02-17T10:49:19.467Z,23.25
2019-02-17T10:52:49.534Z,23
2019-02-17T10:56:19.717Z,22.83
2019-02-17T10:59:49.878Z,22.71
2019-02-17T11:03:20.980Z,26.3
2019-02-17T11:06:51.173Z,23.81
2019-02-17T11:10:21.364Z,22.51
2019-02-17T11:13:51.396Z,23.4
2019-02-17T11:17:21.618Z,20.06
2019-02-17T11:20:51.591Z,19.55
2019-02-17T11:24:21.692Z,24.3
2019-02-17T11:27:51.814Z,20.4
2019-02-17T11:31:21.946Z,19.38
2019-02-17T11:34:52.079Z,21.01
2019-02-17T11:38:22.184Z,17.34
2019-02-17T11:41:52.232Z,20.45
2019-02-17T11:45:22.344Z,20.19
2019-02-17T11:48:52.386Z,18.46
2019-02-17T11:52:22.498Z,18.96
2019-02-17T11:55:52.550Z,18.21
2019-02-17T11:59:22.644Z,17.02
2019-02-17T12:00:18.365Z,20.66
2019-02-17T12:03:49.476Z,18.36
2019-02-17T12:07:19.557Z,16.99
2019-02-17T12:10:49.659Z,16.86
2019-02-17T12:14:19.841Z,16.2
2019-02-17T12:17:49.923Z,16
2019-02-17T12:21:29.365Z,14.21
2019-02-17T12:25:05.138Z,16.8
2019-02-17T12:28:42.489Z,13.9
2019-02-17T12:32:12.582Z,16.7
2019-02-17T12:35:42.851Z,15.74
2019-02-17T12:39:15.095Z,15.93
2019-02-17T12:42:45.348Z,15.39
2019-02-17T12:46:15.443Z,15.55
2019-02-17T12:49:45.432Z,13.15
2019-02-17T12:53:15.394Z,13.61
2019-02-17T12:56:45.498Z,12.56
2019-02-17T13:00:16.343Z,12.82
2019-02-17T13:03:46.430Z,13.19
2019-02-17T13:07:17.462Z,13.49
2019-02-17T13:10:47.645Z,13.61
2019-02-17T13:14:17.706Z,13.46
2019-02-17T13:17:47.808Z,15.44
2019-02-17T13:21:17.791Z,13.29
2019-02-17T13:24:47.919Z,13.95
2019-02-17T13:28:17.925Z,13.76
2019-02-17T13:31:48.157Z,13.59
2019-02-17T13:35:18.169Z,14.89
2019-02-17T13:38:48.261Z,14.45
2019-02-17T13:42:18.323Z,12.7
2019-02-17T13:45:48.406Z,12.36
2019-02-17T13:49:18.638Z,13.8
2019-02-17T13:52:48.770Z,13.14
2019-02-17T13:56:18.842Z,11.56
2019-02-17T13:59:48.924Z,12.62
2019-02-17T14:00:16.696Z,13.75
2019-02-17T14:03:49.259Z,14.14
2019-02-17T14:07:20.533Z,13
2019-02-17T14:10:50.560Z,14.09
2019-02-17T14:14:20.537Z,12.6
2019-02-17T14:17:50.705Z,12.44
2019-02-17T14:21:20.867Z,13.46
2019-02-17T14:24:50.959Z,15.79
2019-02-17T14:28:20.961Z,15.22
2019-02-17T14:31:50.973Z,14.84
2019-02-17T14:35:21.105Z,18.35
2019-02-17T14:38:51.157Z,15.1
2019-02-17T14:42:21.222Z,14.56
2019-02-17T14:45:51.231Z,17.56
2019-02-17T14:49:21.284Z,16.05
2019-02-17T14:52:51.406Z,12.39
2019-02-17T14:56:21.489Z,14.78
2019-02-17T14:59:51.648Z,18.01
2019-02-17T15:03:21.772Z,15.75
2019-02-17T15:06:51.915Z,19.18
2019-02-17T15:10:22.900Z,21.44
2019-02-17T15:13:52.958Z,15.59
2019-02-17T15:17:23.090Z,15.55
2019-02-17T15:20:53.242Z,20.79
2019-02-17T15:24:23.344Z,20
2019-02-17T15:27:53.515Z,17.17
2019-02-17T15:31:23.577Z,17.96
2019-02-17T15:34:53.673Z,13.46
2019-02-17T15:38:23.801Z,18.4
2019-02-17T15:41:53.853Z,22.6
2019-02-17T15:45:23.966Z,18.11
2019-02-17T15:48:54.086Z,19.67
2019-02-17T15:52:24.301Z,27.29
2019-02-17T15:55:54.292Z,23.68
2019-02-17T15:59:24.442Z,19.5
2019-02-17T16:00:16.722Z,24.73
2019-02-17T16:03:46.755Z,18.62
2019-02-17T16:07:16.986Z,20.06
2019-02-17T16:10:47.971Z,23.89
2019-02-17T16:14:17.999Z,18.01
2019-02-17T16:17:48.115Z,13.9
2019-02-17T16:21:18.181Z,15.59
2019-02-17T16:24:48.365Z,14.64
2019-02-17T16:28:18.607Z,16.88
2019-02-17T16:31:48.648Z,15.55
2019-02-17T16:35:18.820Z,13.34
2019-02-17T16:38:48.849Z,15.69
2019-02-17T16:42:18.943Z,15.55
2019-02-17T16:45:48.955Z,17.02
2019-02-17T16:49:19.037Z,18.07
2019-02-17T16:52:49.024Z,15.96
2019-02-17T16:56:20.725Z,14.64
2019-02-17T16:59:50.872Z,13.21
2019-02-17T17:03:20.976Z,13.39
2019-02-17T17:06:50.945Z,13.6
2019-02-17T17:10:21.218Z,12.29
2019-02-17T17:13:52.189Z,12.3
2019-02-17T17:17:22.260Z,13.48
2019-02-17T17:20:52.402Z,12.49
2019-02-17T17:24:22.533Z,13.01
2019-02-17T17:27:52.625Z,12.12
2019-02-17T17:31:22.717Z,14.55
2019-02-17T17:34:58.579Z,12.89
2019-02-17T17:38:29.481Z,13.31
2019-02-17T17:41:59.422Z,12.44
2019-02-17T17:45:29.494Z,13.44
2019-02-17T17:48:59.445Z,14.1
2019-02-17T17:52:29.473Z,13.95
2019-02-17T17:55:59.521Z,12.85
2019-02-17T17:59:29.580Z,12.76
2019-02-17T18:00:18.062Z,13.89
2019-02-17T18:03:48.202Z,15.99
2019-02-17T18:07:18.385Z,14.89
2019-02-17T18:10:48.501Z,13.62
2019-02-17T18:14:19.527Z,12.7
2019-02-17T18:17:54.281Z,13.78
2019-02-17T18:21:25.141Z,13.41
2019-02-17T18:24:55.143Z,12.64
2019-02-17T18:28:25.234Z,18.41
2019-02-17T18:31:55.336Z,17.2
2019-02-17T18:35:25.421Z,15.36
2019-02-17T18:38:55.509Z,12.64
2019-02-17T18:42:25.671Z,12.86
2019-02-17T18:45:55.742Z,12.86
2019-02-17T18:49:25.764Z,15.2
2019-02-17T18:52:55.845Z,12.54
2019-02-17T18:56:25.997Z,15.84
2019-02-17T18:59:56.109Z,13.49
2019-02-17T19:03:26.190Z,13.47
2019-02-17T19:06:56.192Z,16.55
2019-02-17T19:10:26.433Z,15.91
2019-02-17T19:13:56.481Z,15.88
2019-02-17T19:17:27.497Z,14.15
2019-02-17T19:20:57.481Z,13.57
2019-02-17T19:24:27.540Z,14.7
2019-02-17T19:27:57.621Z,18.98
2019-02-17T19:31:27.757Z,14.31
2019-02-17T19:34:57.765Z,14.19
2019-02-17T19:38:27.877Z,15.77
2019-02-17T19:41:58.048Z,13.11
2019-02-17T19:45:28.011Z,19.28
2019-02-17T19:48:58.052Z,15.2
2019-02-17T19:52:28.173Z,14.88
2019-02-17T19:55:58.245Z,16.84
2019-02-17T19:59:28.297Z,10.09
2019-02-17T20:00:16.929Z,13.65
2019-02-17T20:04:00.778Z,12.5
2019-02-17T20:07:30.840Z,14.85
2019-02-17T20:11:01.053Z,11.35
2019-02-17T20:14:31.781Z,12.4
2019-02-17T20:18:02.971Z,12.51
2019-02-17T20:21:33.247Z,15.01
2019-02-17T20:25:03.493Z,12.32
2019-02-17T20:28:43.043Z,13.29
2019-02-17T20:32:13.882Z,12.4
2019-02-17T20:35:43.905Z,12.34
2019-02-17T20:39:14.026Z,17.56
2019-02-17T20:42:44.098Z,15.43
2019-02-17T20:46:14.118Z,15.8
2019-02-17T20:49:44.240Z,11.64
2019-02-17T20:53:14.224Z,11.81
2019-02-17T20:56:44.323Z,11.54
2019-02-17T21:00:14.513Z,11.1
2019-02-17T21:03:44.616Z,11.65
2019-02-17T21:07:16.433Z,16.74
2019-02-17T21:10:46.639Z,11.29
2019-02-17T21:14:16.592Z,12.41
2019-02-17T21:17:46.770Z,11.43
2019-02-17T21:21:17.755Z,12.26
2019-02-17T21:24:47.736Z,11.32
2019-02-17T21:28:17.778Z,17.15
2019-02-17T21:31:47.890Z,10.29
2019-02-17T21:35:17.861Z,9.66
2019-02-17T21:38:47.932Z,9.98
2019-02-17T21:42:17.955Z,10.24
2019-02-17T21:45:48.044Z,8.15
2019-02-17T21:49:18.009Z,8.82
2019-02-17T21:52:48.220Z,7.8
2019-02-17T21:56:18.331Z,9.2
2019-02-17T21:59:48.417Z,9.26
2019-02-17T22:00:18.243Z,9.99
2019-02-17T22:03:48.246Z,14.8
2019-02-17T22:07:18.287Z,14.29
2019-02-17T22:10:48.358Z,17.38
2019-02-17T22:14:18.439Z,12.7
2019-02-17T22:17:48.461Z,9.16
2019-02-17T22:21:19.534Z,9.69
2019-02-17T22:24:49.584Z,8.25
2019-02-17T22:28:19.655Z,8.69
2019-02-17T22:31:49.757Z,8.4
2019-02-17T22:35:19.819Z,8.35
2019-02-17T22:38:49.934Z,8.4
2019-02-17T22:42:19.972Z,7.93
2019-02-17T22:45:50.064Z,9
2019-02-17T22:49:20.105Z,8.64
2019-02-17T22:52:50.177Z,9.05
2019-02-17T22:56:20.249Z,8.91
2019-02-17T22:59:50.290Z,7.92
2019-02-17T23:03:20.392Z,8.81
2019-02-17T23:06:54.063Z,7.79
2019-02-17T23:10:24.677Z,9.06
2019-02-17T23:13:54.796Z,9.35
2019-02-17T23:17:24.920Z,7.41
2019-02-17T23:20:54.989Z,8.15
2019-02-17T23:24:26.726Z,10.9
2019-02-17T23:27:56.783Z,9.95
2019-02-17T23:31:26.897Z,8.34
2019-02-17T23:34:56.961Z,11.25
2019-02-17T23:38:26.987Z,8.93
2019-02-17T23:41:56.970Z,9.84
2019-02-17T23:45:27.163Z,9.85
2019-02-17T23:48:57.243Z,8.95
2019-02-17T23:52:27.281Z,9.57
2019-02-17T23:55:57.427Z,9.66
2019-02-17T23:59:27.518Z,10.4
